createdAt,value
2019-03-31T00:02:05.218Z,17.17
2019-03-31T00:04:33.604Z,16.33
2019-03-31T00:07:02.097Z,17.53
2019-03-31T00:09:30.517Z,16.10
2019-03-31T00:11:59.003Z,17.60
2019-03-31T00:14:27.451Z,18.60
2019-03-31T00:16:55.994Z,18.50
2019-03-31T00:19:24.454Z,17.40
2019-03-31T00:21:52.870Z,17.50
2019-03-31T00:24:21.272Z,17.30
2019-03-31T00:26:49.774Z,18.23
2019-03-31T00:29:18.170Z,18.50
2019-03-31T00:31:46.616Z,17.70
2019-03-31T00:34:15.039Z,18.70
2019-03-31T00:36:43.457Z,17.47
2019-03-31T00:39:11.958Z,19.63
2019-03-31T00:41:40.383Z,18.00
2019-03-31T00:44:08.971Z,19.40
2019-03-31T00:46:37.384Z,19.20
2019-03-31T00:49:05.812Z,17.27
2019-03-31T00:51:34.216Z,17.73
2019-03-31T00:54:02.711Z,17.80
2019-03-31T00:56:31.144Z,15.90
2019-03-31T00:58:59.578Z,17.80
2019-03-31T01:01:36.412Z,16.87
2019-03-31T01:04:00.023Z,16.77
2019-03-31T01:06:29.131Z,16.90
2019-03-31T01:08:58.148Z,17.47
2019-03-31T01:11:28.117Z,18.20
2019-03-31T01:13:56.762Z,17.23
2019-03-31T01:16:26.314Z,17.40
2019-03-31T01:18:54.930Z,17.77
2019-03-31T01:21:23.359Z,18.27
2019-03-31T01:23:51.880Z,18.50
2019-03-31T01:26:20.999Z,17.57
2019-03-31T01:28:49.783Z,16.13
2019-03-31T01:31:18.341Z,17.73
2019-03-31T01:33:46.829Z,17.57
2019-03-31T01:36:15.419Z,17.40
2019-03-31T01:38:43.902Z,18.57
2019-03-31T01:41:13.523Z,19.13
2019-03-31T01:43:41.935Z,16.90
2019-03-31T01:46:12.003Z,17.63
2019-03-31T01:48:40.459Z,18.47
2019-03-31T01:51:09.128Z,17.83
2019-03-31T01:53:37.549Z,18.13
2019-03-31T01:56:05.978Z,17.90
2019-03-31T01:58:34.730Z,17.33
2019-03-31T02:01:07.625Z,17.20
2019-03-31T02:03:36.027Z,18.00
2019-03-31T02:06:04.591Z,17.00
2019-03-31T02:08:32.995Z,17.80
2019-03-31T02:11:01.500Z,18.33
2019-03-31T02:13:29.933Z,18.57
2019-03-31T02:15:58.366Z,17.70
2019-03-31T02:18:26.841Z,17.60
2019-03-31T02:20:55.363Z,19.57
2019-03-31T02:23:23.758Z,18.57
2019-03-31T02:25:52.290Z,19.87
2019-03-31T02:28:20.731Z,18.43
2019-03-31T02:30:49.156Z,15.90
2019-03-31T02:33:17.597Z,18.40
2019-03-31T02:35:46.133Z,19.07
2019-03-31T02:38:14.671Z,18.77
2019-03-31T02:40:43.109Z,18.87
2019-03-31T02:43:11.514Z,18.57
2019-03-31T02:45:39.914Z,17.60
2019-03-31T02:48:08.342Z,20.90
2019-03-31T02:50:45.480Z,19.73
2019-03-31T02:53:14.763Z,17.50
2019-03-31T02:55:44.797Z,18.33
2019-03-31T02:58:14.935Z,18.00
2019-03-31T03:00:43.510Z,17.80
2019-03-31T03:03:13.497Z,17.67
2019-03-31T03:05:43.075Z,18.60
2019-03-31T03:08:12.941Z,18.60
2019-03-31T03:10:43.551Z,18.77
2019-03-31T03:13:14.293Z,17.97
2019-03-31T03:15:51.518Z,17.00
2019-03-31T03:18:19.955Z,18.73
2019-03-31T03:20:48.388Z,18.60
2019-03-31T03:23:16.773Z,19.97
2019-03-31T03:25:55.691Z,19.00
2019-03-31T03:28:15.356Z,19.37
2019-03-31T03:30:44.062Z,18.23
2019-03-31T03:33:16.312Z,18.50
2019-03-31T03:35:42.645Z,17.87
2019-03-31T03:38:11.092Z,19.50
2019-03-31T03:40:39.476Z,20.07
2019-03-31T03:43:07.884Z,18.40
2019-03-31T03:45:36.490Z,20.80
2019-03-31T03:48:04.942Z,18.50
2019-03-31T03:50:33.367Z,21.17
2019-03-31T03:53:01.780Z,19.53
2019-03-31T03:55:30.208Z,18.77
2019-03-31T03:57:58.619Z,18.50
2019-03-31T04:00:27.048Z,17.90
2019-03-31T04:02:55.439Z,18.07
2019-03-31T04:05:23.859Z,18.73
2019-03-31T04:07:52.299Z,21.30
2019-03-31T04:10:40.359Z,19.70
2019-03-31T04:13:08.755Z,25.20
2019-03-31T04:15:37.147Z,23.13
2019-03-31T04:18:05.579Z,24.90
2019-03-31T04:20:34.048Z,24.03
2019-03-31T04:23:02.471Z,23.80
2019-03-31T04:25:30.900Z,30.83
2019-03-31T04:27:59.389Z,26.37
2019-03-31T04:30:27.851Z,39.30
2019-03-31T04:32:56.312Z,41.60
2019-03-31T04:35:24.746Z,40.97
2019-03-31T04:37:53.150Z,42.90
2019-03-31T04:40:21.576Z,44.13
2019-03-31T04:42:49.970Z,47.00
2019-03-31T04:45:18.382Z,48.53
2019-03-31T04:47:46.818Z,45.07
2019-03-31T04:50:15.322Z,46.60
2019-03-31T04:52:43.766Z,48.60
2019-03-31T04:55:12.181Z,49.10
2019-03-31T04:57:40.615Z,46.47
2019-03-31T05:00:09.241Z,48.50
2019-03-31T05:02:37.650Z,51.00
2019-03-31T05:05:06.235Z,49.60
2019-03-31T05:07:34.742Z,49.80
2019-03-31T05:10:04.216Z,50.33
2019-03-31T05:12:32.641Z,46.13
2019-03-31T05:15:01.068Z,46.30
2019-03-31T05:17:29.498Z,49.93
2019-03-31T05:19:57.938Z,50.33
2019-03-31T05:22:26.349Z,47.93
2019-03-31T05:24:54.821Z,48.80
2019-03-31T05:27:23.263Z,47.87
2019-03-31T05:29:51.655Z,49.30
2019-03-31T05:32:20.087Z,48.73
2019-03-31T05:34:48.488Z,47.70
2019-03-31T05:37:16.912Z,50.70
2019-03-31T05:39:45.414Z,47.67
2019-03-31T05:42:13.848Z,48.60
2019-03-31T05:44:42.261Z,48.27
2019-03-31T05:47:10.743Z,50.10
2019-03-31T05:49:39.163Z,47.37
2019-03-31T05:52:07.600Z,50.93
2019-03-31T05:54:36.017Z,48.50
2019-03-31T05:57:04.591Z,48.90
2019-03-31T05:59:32.992Z,47.33
2019-03-31T06:02:02.079Z,47.20
2019-03-31T06:04:33.340Z,50.33
2019-03-31T06:07:00.726Z,48.80
2019-03-31T06:09:29.224Z,49.33
2019-03-31T06:11:57.639Z,46.73
2019-03-31T06:14:26.056Z,47.63
2019-03-31T06:16:54.534Z,48.53
2019-03-31T06:19:22.955Z,46.13
2019-03-31T06:21:51.375Z,45.27
2019-03-31T06:24:19.770Z,46.30
2019-03-31T06:26:48.252Z,46.13
2019-03-31T06:29:16.637Z,48.60
2019-03-31T06:31:45.072Z,48.17
2019-03-31T06:34:13.482Z,46.47
2019-03-31T06:36:41.871Z,47.30
2019-03-31T06:39:10.391Z,49.33
2019-03-31T06:41:38.783Z,48.00
2019-03-31T06:44:07.225Z,50.97
2019-03-31T06:46:35.613Z,49.50
2019-03-31T06:49:04.023Z,48.80
2019-03-31T06:51:32.444Z,49.43
2019-03-31T06:54:00.856Z,50.90
2019-03-31T06:56:29.270Z,49.30
2019-03-31T06:58:57.670Z,48.90
2019-03-31T07:01:26.170Z,50.83
2019-03-31T07:03:54.660Z,49.87
2019-03-31T07:06:23.095Z,50.47
2019-03-31T07:08:51.510Z,49.90
2019-03-31T07:11:19.917Z,50.30
2019-03-31T07:13:48.345Z,53.90
2019-03-31T07:16:16.774Z,49.33
2019-03-31T07:18:45.181Z,51.33
2019-03-31T07:21:13.612Z,46.87
2019-03-31T07:23:42.055Z,49.10
2019-03-31T07:26:10.539Z,48.47
2019-03-31T07:28:38.930Z,47.50
2019-03-31T07:31:07.355Z,49.17
2019-03-31T07:33:35.792Z,49.67
2019-03-31T07:36:04.193Z,51.00
2019-03-31T07:38:38.795Z,47.30
2019-03-31T07:41:12.439Z,45.50
2019-03-31T07:43:33.923Z,46.10
2019-03-31T07:46:02.368Z,46.77
2019-03-31T07:48:30.793Z,48.27
2019-03-31T07:50:59.231Z,45.87
2019-03-31T07:53:27.683Z,47.40
2019-03-31T07:55:56.109Z,47.17
2019-03-31T07:58:24.526Z,46.50
2019-03-31T08:00:52.948Z,45.67
2019-03-31T08:03:21.391Z,43.40
2019-03-31T08:05:49.911Z,47.07
2019-03-31T08:08:18.351Z,46.50
2019-03-31T08:10:46.765Z,46.87
2019-03-31T08:13:15.172Z,48.80
2019-03-31T08:15:43.574Z,47.87
2019-03-31T08:18:12.024Z,46.13
2019-03-31T08:20:40.432Z,48.77
2019-03-31T08:23:08.839Z,48.37
2019-03-31T08:25:37.267Z,50.90
2019-03-31T08:28:05.748Z,49.97
2019-03-31T08:30:34.260Z,50.00
2019-03-31T08:33:02.702Z,46.73
2019-03-31T08:35:31.125Z,47.80
2019-03-31T08:37:59.564Z,47.30
2019-03-31T08:40:27.946Z,46.50
2019-03-31T08:42:56.378Z,47.30
2019-03-31T08:45:24.940Z,49.00
2019-03-31T08:47:53.337Z,47.37
2019-03-31T08:50:21.751Z,46.00
2019-03-31T08:52:50.453Z,46.20
2019-03-31T08:55:18.854Z,46.63
2019-03-31T08:57:47.297Z,46.00
2019-03-31T09:00:24.247Z,43.13
2019-03-31T09:02:52.671Z,42.57
2019-03-31T09:05:21.137Z,42.33
2019-03-31T09:07:49.584Z,43.10
2019-03-31T09:10:18.063Z,45.10
2019-03-31T09:12:48.413Z,41.83
2019-03-31T09:15:16.720Z,41.50
2019-03-31T09:17:45.120Z,41.50
2019-03-31T09:20:15.063Z,39.40
2019-03-31T09:22:43.491Z,40.73
2019-03-31T09:25:11.957Z,39.37
2019-03-31T09:27:40.500Z,38.00
2019-03-31T09:30:11.145Z,41.23
2019-03-31T09:32:39.808Z,37.90
2019-03-31T09:35:09.270Z,38.83
2019-03-31T09:37:37.906Z,38.33
2019-03-31T09:40:08.858Z,38.33
2019-03-31T09:42:37.430Z,38.67
2019-03-31T09:45:07.279Z,38.50
2019-03-31T09:47:36.158Z,39.07
2019-03-31T09:50:10.764Z,38.30
2019-03-31T09:52:39.234Z,38.67
2019-03-31T09:55:08.602Z,36.87
2019-03-31T09:57:37.074Z,37.47
2019-03-31T10:00:11.545Z,39.30
2019-03-31T10:02:40.019Z,36.70
2019-03-31T10:05:09.180Z,46.07
2019-03-31T10:07:39.136Z,37.57
2019-03-31T10:10:08.984Z,36.40
2019-03-31T10:12:37.384Z,33.33
2019-03-31T10:15:07.728Z,33.87
2019-03-31T10:17:36.210Z,34.37
2019-03-31T10:20:05.958Z,33.00
2019-03-31T10:22:34.464Z,32.67
2019-03-31T10:25:05.502Z,31.97
2019-03-31T10:27:33.260Z,30.90
2019-03-31T10:30:02.971Z,29.57
2019-03-31T10:32:31.450Z,32.20
2019-03-31T10:34:59.895Z,29.33
2019-03-31T10:37:28.289Z,28.90
2019-03-31T10:39:56.935Z,25.93
2019-03-31T10:42:25.421Z,24.63
2019-03-31T10:44:53.916Z,24.47
2019-03-31T10:47:22.323Z,26.50
2019-03-31T10:49:50.759Z,26.20
2019-03-31T10:52:19.168Z,26.73
2019-03-31T10:54:47.575Z,26.20
2019-03-31T10:57:16.294Z,28.80
2019-03-31T10:59:44.686Z,21.60
2019-03-31T11:02:13.070Z,23.97
2019-03-31T11:04:41.574Z,23.47
2019-03-31T11:07:09.965Z,23.07
2019-03-31T11:09:38.575Z,24.67
2019-03-31T11:12:10.439Z,22.13
2019-03-31T11:14:39.055Z,22.23
2019-03-31T11:17:07.445Z,23.83
2019-03-31T11:19:35.897Z,22.70
2019-03-31T11:22:05.968Z,21.60
2019-03-31T11:24:34.376Z,19.07
2019-03-31T11:27:02.831Z,20.70
2019-03-31T11:29:31.281Z,20.70
2019-03-31T11:31:59.721Z,18.37
2019-03-31T11:34:28.221Z,19.97
2019-03-31T11:36:56.739Z,18.47
2019-03-31T11:39:25.140Z,17.20
2019-03-31T11:41:53.560Z,19.20
2019-03-31T11:44:21.980Z,18.37
2019-03-31T11:46:50.419Z,17.77
2019-03-31T11:49:18.917Z,16.30
2019-03-31T11:51:47.326Z,16.50
2019-03-31T11:54:15.765Z,16.80
2019-03-31T11:56:44.215Z,16.70
2019-03-31T11:59:13.616Z,16.90
2019-03-31T12:01:42.165Z,15.03
2019-03-31T12:04:10.641Z,15.87
2019-03-31T12:06:39.198Z,15.43
2019-03-31T12:09:07.912Z,15.83
2019-03-31T12:11:36.368Z,16.40
2019-03-31T12:14:05.289Z,17.50
2019-03-31T12:16:33.826Z,15.43
2019-03-31T12:19:02.241Z,16.27
2019-03-31T12:21:30.755Z,15.80
2019-03-31T12:23:59.246Z,14.23
2019-03-31T12:26:27.659Z,15.50
2019-03-31T12:28:56.075Z,16.30
2019-03-31T12:31:24.509Z,16.67
2019-03-31T12:33:52.937Z,15.93
2019-03-31T12:36:21.517Z,14.80
2019-03-31T12:38:53.591Z,16.40
2019-03-31T12:41:20.146Z,16.07
2019-03-31T12:43:48.574Z,16.50
2019-03-31T12:46:16.982Z,14.77
2019-03-31T12:48:45.409Z,14.23
2019-03-31T12:51:13.815Z,14.37
2019-03-31T12:53:42.222Z,15.23
2019-03-31T12:56:10.627Z,19.00
2019-03-31T12:58:39.062Z,16.50
2019-03-31T13:01:07.565Z,14.93
2019-03-31T13:03:36.002Z,15.70
2019-03-31T13:06:04.411Z,13.50
2019-03-31T13:08:32.849Z,13.70
2019-03-31T13:11:01.258Z,13.00
2019-03-31T13:13:29.666Z,14.10
2019-03-31T13:15:58.180Z,14.80
2019-03-31T13:18:28.178Z,14.53
2019-03-31T13:20:56.866Z,29.33
2019-03-31T13:23:25.277Z,13.37
2019-03-31T13:25:53.849Z,13.63
2019-03-31T13:28:22.278Z,14.50
2019-03-31T13:30:50.750Z,13.40
2019-03-31T13:33:19.190Z,15.80
2019-03-31T13:35:47.719Z,13.00
2019-03-31T13:38:16.158Z,15.60
2019-03-31T13:40:44.565Z,15.00
2019-03-31T13:43:13.087Z,13.87
2019-03-31T13:45:41.550Z,12.97
2019-03-31T13:48:10.096Z,11.57
2019-03-31T13:50:38.484Z,11.63
2019-03-31T13:53:06.904Z,11.43
2019-03-31T13:55:35.473Z,11.10
2019-03-31T13:58:04.943Z,12.20
2019-03-31T14:00:36.505Z,10.77
2019-03-31T14:03:05.320Z,16.90
2019-03-31T14:05:33.741Z,11.70
2019-03-31T14:08:02.165Z,16.50
2019-03-31T14:10:30.576Z,10.00
2019-03-31T14:12:58.978Z,11.57
2019-03-31T14:15:27.482Z,10.30
2019-03-31T14:17:55.900Z,12.30
2019-03-31T14:20:24.314Z,10.23
2019-03-31T14:22:52.751Z,11.67
2019-03-31T14:25:21.162Z,18.80
2019-03-31T14:27:49.639Z,12.80
2019-03-31T14:30:18.214Z,12.30
2019-03-31T14:32:46.622Z,9.87
2019-03-31T14:35:15.101Z,10.53
2019-03-31T14:37:43.617Z,10.33
2019-03-31T14:40:12.090Z,9.57
2019-03-31T14:42:40.573Z,8.83
2019-03-31T14:45:10.668Z,9.40
2019-03-31T14:47:39.178Z,8.77
2019-03-31T14:50:07.915Z,10.83
2019-03-31T14:52:36.312Z,12.00
2019-03-31T14:55:05.596Z,8.87
2019-03-31T14:57:33.992Z,8.60
2019-03-31T15:00:13.850Z,7.87
2019-03-31T15:02:32.618Z,16.00
2019-03-31T15:05:01.023Z,28.77
2019-03-31T15:07:29.472Z,8.13
2019-03-31T15:09:57.898Z,8.30
2019-03-31T15:12:26.310Z,8.27
2019-03-31T15:14:54.792Z,8.17
2019-03-31T15:17:23.233Z,9.57
2019-03-31T15:19:51.668Z,10.00
2019-03-31T15:22:20.081Z,11.20
2019-03-31T15:24:48.526Z,9.33
2019-03-31T15:27:16.953Z,8.23
2019-03-31T15:29:45.424Z,8.80
2019-03-31T15:32:14.029Z,9.87
2019-03-31T15:34:42.593Z,9.30
2019-03-31T15:37:11.246Z,8.40
2019-03-31T15:39:39.732Z,12.00
2019-03-31T15:42:08.160Z,8.70
2019-03-31T15:44:36.569Z,7.43
2019-03-31T15:47:05.000Z,7.63
2019-03-31T15:49:33.422Z,7.07
2019-03-31T15:52:01.844Z,7.00
2019-03-31T15:54:30.270Z,8.30
2019-03-31T15:56:58.688Z,8.30
2019-03-31T15:59:27.248Z,8.20
2019-03-31T16:01:55.863Z,7.83
2019-03-31T16:04:24.471Z,6.40
2019-03-31T16:06:53.165Z,18.17
2019-03-31T16:09:23.522Z,7.87
2019-03-31T16:11:54.082Z,6.90
2019-03-31T16:14:22.077Z,7.40
2019-03-31T16:16:50.484Z,6.60
2019-03-31T16:19:19.041Z,6.30
2019-03-31T16:21:47.442Z,10.07
2019-03-31T16:24:15.911Z,6.90
2019-03-31T16:26:44.383Z,10.97
2019-03-31T16:29:12.785Z,6.20
2019-03-31T16:31:41.215Z,6.10
2019-03-31T16:34:09.620Z,6.30
2019-03-31T16:36:38.053Z,6.17
2019-03-31T16:39:07.219Z,6.60
2019-03-31T16:41:35.600Z,11.10
2019-03-31T16:44:04.034Z,7.30
2019-03-31T16:46:32.494Z,5.67
2019-03-31T16:49:15.873Z,5.70
2019-03-31T16:51:44.448Z,5.90
2019-03-31T16:54:12.981Z,5.80
2019-03-31T16:56:41.402Z,6.17
2019-03-31T16:59:09.850Z,6.60
2019-03-31T17:01:38.314Z,6.80
2019-03-31T17:04:06.802Z,6.23
2019-03-31T17:06:35.221Z,6.33
2019-03-31T17:09:05.692Z,7.27
2019-03-31T17:11:34.272Z,6.83
2019-03-31T17:14:02.670Z,6.40
2019-03-31T17:16:31.211Z,5.50
2019-03-31T17:18:59.641Z,5.10
2019-03-31T17:21:28.054Z,10.20
2019-03-31T17:23:56.538Z,7.83
2019-03-31T17:26:24.946Z,6.50
2019-03-31T17:28:53.374Z,9.50
2019-03-31T17:31:21.798Z,6.30
2019-03-31T17:33:50.197Z,5.70
2019-03-31T17:36:18.693Z,8.47
2019-03-31T17:38:47.092Z,5.80
2019-03-31T17:41:15.565Z,5.00
2019-03-31T17:43:43.980Z,4.70
2019-03-31T17:46:12.399Z,5.00
2019-03-31T17:48:40.821Z,5.07
2019-03-31T17:51:09.218Z,5.47
2019-03-31T17:53:37.643Z,5.60
2019-03-31T17:56:06.147Z,8.50
2019-03-31T17:58:34.548Z,19.53
2019-03-31T18:01:03.033Z,6.97
2019-03-31T18:03:31.457Z,5.37
2019-03-31T18:05:59.876Z,6.20
2019-03-31T18:08:28.413Z,5.77
2019-03-31T18:10:56.835Z,5.20
2019-03-31T18:13:25.354Z,24.33
2019-03-31T18:15:53.768Z,7.10
2019-03-31T18:18:22.171Z,6.40
2019-03-31T18:20:50.582Z,7.40
2019-03-31T18:23:19.066Z,6.53
2019-03-31T18:25:47.507Z,6.03
2019-03-31T18:28:15.910Z,5.63
2019-03-31T18:30:44.350Z,4.73
2019-03-31T18:33:12.752Z,8.10
2019-03-31T18:35:41.171Z,10.40
2019-03-31T18:38:09.606Z,5.80
2019-03-31T18:40:38.489Z,11.20
2019-03-31T18:43:06.955Z,4.93
2019-03-31T18:45:35.486Z,4.60
2019-03-31T18:48:03.892Z,5.13
2019-03-31T18:50:32.314Z,5.17
2019-03-31T18:53:01.018Z,5.30
2019-03-31T18:55:31.084Z,5.00
2019-03-31T18:58:17.518Z,4.37
2019-03-31T19:00:48.030Z,4.97
2019-03-31T19:03:33.108Z,5.30
2019-03-31T19:06:21.050Z,5.13
2019-03-31T19:08:51.110Z,6.97
2019-03-31T19:11:26.665Z,8.73
2019-03-31T19:13:56.857Z,5.23
2019-03-31T19:16:26.998Z,4.63
2019-03-31T19:19:05.904Z,5.10
2019-03-31T19:21:44.727Z,5.10
2019-03-31T19:24:20.657Z,5.10
2019-03-31T19:26:53.175Z,5.03
2019-03-31T19:29:23.259Z,5.00
2019-03-31T19:31:59.242Z,4.40
2019-03-31T19:34:32.368Z,5.30
2019-03-31T19:37:17.686Z,7.40
2019-03-31T19:39:53.408Z,11.63
2019-03-31T19:42:39.654Z,4.97
2019-03-31T19:45:12.656Z,4.43
2019-03-31T19:47:45.428Z,4.27
2019-03-31T19:50:18.487Z,4.53
2019-03-31T19:53:05.002Z,4.50
2019-03-31T19:55:44.129Z,3.80
2019-03-31T19:58:22.758Z,10.10
2019-03-31T20:01:03.115Z,3.73
2019-03-31T20:03:48.151Z,3.30
2019-03-31T20:06:20.712Z,4.40
2019-03-31T20:08:53.646Z,3.73
2019-03-31T20:11:23.932Z,3.80
2019-03-31T20:14:06.088Z,3.97
2019-03-31T20:16:52.367Z,3.70
2019-03-31T20:19:31.606Z,3.60
2019-03-31T20:22:04.458Z,4.27
2019-03-31T20:24:34.531Z,3.40
2019-03-31T20:27:10.752Z,4.17
2019-03-31T20:29:52.815Z,3.67
2019-03-31T20:32:26.017Z,3.90
2019-03-31T20:34:56.174Z,6.80
2019-03-31T20:37:29.303Z,5.27
2019-03-31T20:40:15.523Z,6.33
2019-03-31T20:43:02.027Z,3.57
2019-03-31T20:45:30.528Z,3.50
2019-03-31T20:47:58.915Z,4.17
2019-03-31T20:50:27.434Z,3.47
2019-03-31T20:52:55.805Z,9.50
2019-03-31T20:55:24.327Z,15.97
2019-03-31T20:57:52.744Z,3.70
2019-03-31T21:00:21.289Z,2.83
2019-03-31T21:02:49.766Z,3.10
2019-03-31T21:05:18.325Z,2.90
2019-03-31T21:07:46.787Z,3.20
2019-03-31T21:10:15.215Z,3.27
2019-03-31T21:12:43.678Z,3.20
2019-03-31T21:15:12.142Z,3.10
2019-03-31T21:17:40.547Z,2.73
2019-03-31T21:20:09.147Z,2.60
2019-03-31T21:22:37.564Z,2.73
2019-03-31T21:25:07.000Z,2.67
2019-03-31T21:27:35.414Z,2.93
2019-03-31T21:30:05.286Z,2.83
2019-03-31T21:32:33.682Z,3.10
2019-03-31T21:35:02.186Z,2.60
2019-03-31T21:37:30.583Z,4.53
2019-03-31T21:39:58.997Z,3.70
2019-03-31T21:42:27.457Z,2.70
2019-03-31T21:44:55.943Z,3.63
2019-03-31T21:47:24.343Z,2.93
2019-03-31T21:49:52.762Z,2.90
2019-03-31T21:52:21.202Z,3.00
2019-03-31T21:54:49.679Z,3.10
2019-03-31T21:57:18.108Z,3.70
2019-03-31T21:59:46.671Z,2.90
2019-03-31T22:02:15.165Z,2.70
2019-03-31T22:04:43.668Z,3.37
2019-03-31T22:07:12.073Z,3.20
2019-03-31T22:09:40.496Z,2.80
2019-03-31T22:12:09.024Z,2.67
2019-03-31T22:14:37.586Z,2.93
2019-03-31T22:17:06.024Z,2.93
2019-03-31T22:19:34.461Z,4.40
2019-03-31T22:22:02.940Z,8.90
2019-03-31T22:24:31.298Z,2.90
2019-03-31T22:26:59.736Z,2.53
2019-03-31T22:29:28.158Z,2.50
2019-03-31T22:31:56.568Z,3.30
2019-03-31T22:34:25.049Z,2.70
2019-03-31T22:36:53.447Z,2.60
2019-03-31T22:39:21.908Z,2.83
2019-03-31T22:41:50.314Z,2.57
2019-03-31T22:44:18.760Z,2.97
2019-03-31T22:46:54.234Z,2.57
2019-03-31T22:49:17.465Z,2.60
2019-03-31T22:51:45.921Z,3.00
2019-03-31T22:54:14.301Z,2.20
2019-03-31T22:56:42.741Z,3.17
2019-03-31T22:59:11.249Z,3.47
2019-03-31T23:01:39.643Z,3.00
2019-03-31T23:04:08.150Z,2.57
2019-03-31T23:06:36.557Z,3.20
2019-03-31T23:09:06.756Z,3.07
2019-03-31T23:11:35.285Z,3.00
2019-03-31T23:14:03.918Z,2.87
2019-03-31T23:16:32.247Z,2.70
2019-03-31T23:19:00.663Z,2.80
2019-03-31T23:21:29.068Z,2.57
2019-03-31T23:23:57.472Z,2.47
2019-03-31T23:26:25.953Z,2.37
2019-03-31T23:28:54.376Z,2.60
2019-03-31T23:31:22.788Z,2.17
2019-03-31T23:33:51.249Z,2.00
2019-03-31T23:36:19.648Z,2.87
2019-03-31T23:38:48.076Z,2.93
2019-03-31T23:41:16.476Z,2.50
2019-03-31T23:43:44.944Z,2.83
2019-03-31T23:46:13.398Z,2.53
2019-03-31T23:48:41.781Z,2.27
2019-03-31T23:51:10.196Z,2.60
2019-03-31T23:53:38.593Z,2.47
2019-03-31T23:56:06.995Z,2.43
2019-03-31T23:58:35.418Z,2.20
